Time;durP1;ratioP1;P1;durP2;ratioP2;P2;SDS_P1;SDS_P2;PMS_P1;PMS_P2;Temp;Humidity;BMP_temperature;BMP_pressure;BME280_temperature;BME280_humidity;BME280_pressure;Samples;Min_cycle;Max_cycle;Signal;HPM_P1;HPM_P2
2020/12/18 00:01:24;;;;;;;32.60;17.20;;;3.70;99.90;;;;;;4377116;32;20167;-71
2020/12/18 00:03:52;;;;;;;31.00;16.70;;;3.70;99.90;;;;;;4371123;32;20457;-72
2020/12/18 00:06:19;;;;;;;31.33;16.97;;;3.70;99.90;;;;;;4378946;32;20194;-72
2020/12/18 00:08:46;;;;;;;33.77;17.03;;;3.70;99.90;;;;;;4367312;32;20202;-72
2020/12/18 00:11:22;;;;;;;34.83;17.33;;;3.70;99.90;;;;;;4379091;32;20143;-73
2020/12/18 00:13:49;;;;;;;30.33;15.83;;;3.80;99.90;;;;;;4373457;32;20206;-73
2020/12/18 00:16:17;;;;;;;30.10;15.80;;;3.80;99.90;;;;;;4373440;32;20360;-73
2020/12/18 00:18:44;;;;;;;31.83;16.93;;;3.80;99.90;;;;;;4378831;32;20395;-72
2020/12/18 00:21:11;;;;;;;30.10;15.43;;;3.70;99.90;;;;;;4366344;32;20144;-72
2020/12/18 00:23:37;;;;;;;31.17;15.93;;;3.70;99.90;;;;;;4376397;32;20202;-72
2020/12/18 00:26:03;;;;;;;31.70;16.13;;;3.60;99.90;;;;;;4370523;32;20524;-71
2020/12/18 00:28:30;;;;;;;28.87;15.17;;;3.50;99.90;;;;;;4378738;32;20232;-72
2020/12/18 00:30:56;;;;;;;29.97;16.37;;;3.60;99.90;;;;;;4366802;32;20557;-72
2020/12/18 00:33:23;;;;;;;30.83;16.37;;;3.50;99.90;;;;;;4376055;32;20404;-71
2020/12/18 00:35:50;;;;;;;33.87;16.87;;;3.50;99.90;;;;;;4369061;32;20148;-71
2020/12/18 00:38:16;;;;;;;32.27;17.03;;;3.50;99.90;;;;;;4378624;32;20148;-71
2020/12/18 00:40:45;;;;;;;35.93;17.77;;;3.50;99.90;;;;;;4367846;32;20574;-71
2020/12/18 00:43:11;;;;;;;36.57;17.40;;;3.60;99.90;;;;;;4377375;32;20187;-71
2020/12/18 00:45:38;;;;;;;36.63;18.40;;;3.60;99.90;;;;;;4374607;32;20170;-71
2020/12/18 00:48:04;;;;;;;39.80;19.13;;;3.60;99.90;;;;;;4370461;32;20204;-71
2020/12/18 00:50:31;;;;;;;41.20;18.70;;;3.70;99.90;;;;;;4378567;32;20406;-71
2020/12/18 00:52:57;;;;;;;40.67;20.20;;;3.70;99.90;;;;;;4366402;32;20183;-71
2020/12/18 00:55:24;;;;;;;45.33;20.70;;;3.70;99.90;;;;;;4378766;32;20151;-71
2020/12/18 00:57:50;;;;;;;47.17;22.00;;;3.70;99.90;;;;;;4374435;32;20144;-71
2020/12/18 01:00:17;;;;;;;45.97;20.83;;;3.60;99.90;;;;;;4371557;32;20148;-71
2020/12/18 01:02:44;;;;;;;48.47;21.80;;;3.60;99.90;;;;;;4378756;32;20212;-71
2020/12/18 01:05:11;;;;;;;47.17;21.17;;;3.60;99.90;;;;;;4366279;32;20144;-72
2020/12/18 01:07:37;;;;;;;50.17;21.80;;;3.60;99.90;;;;;;4374506;32;20250;-71
2020/12/18 01:10:04;;;;;;;55.27;23.77;;;3.60;99.90;;;;;;4373283;32;20159;-71
2020/12/18 01:12:30;;;;;;;52.37;23.93;;;3.60;99.90;;;;;;4368485;32;20163;-72
2020/12/18 01:14:57;;;;;;;52.10;23.50;;;3.50;99.90;;;;;;4368870;32;20218;-72
2020/12/18 01:17:23;;;;;;;59.07;25.00;;;3.60;99.90;;;;;;4378008;32;20369;-71
2020/12/18 01:19:50;;;;;;;66.50;26.27;;;3.50;99.90;;;;;;4372687;32;20159;-71
2020/12/18 01:22:16;;;;;;;60.47;23.90;;;3.50;99.90;;;;;;4381101;32;20140;-72
2020/12/18 01:24:42;;;;;;;63.97;27.20;;;3.60;99.90;;;;;;4369985;32;20215;-71
2020/12/18 01:27:09;;;;;;;65.80;27.20;;;3.70;99.90;;;;;;4380109;32;20183;-71
2020/12/18 01:29:36;;;;;;;65.10;26.50;;;3.80;99.90;;;;;;4377570;32;20243;-72
2020/12/18 01:32:02;;;;;;;59.33;26.17;;;3.80;99.90;;;;;;4359337;32;20483;-71
2020/12/18 01:34:29;;;;;;;65.77;28.07;;;3.80;99.90;;;;;;4380985;32;20211;-71
2020/12/18 01:36:55;;;;;;;64.87;27.10;;;3.80;99.90;;;;;;4369009;32;20157;-72
2020/12/18 01:39:22;;;;;;;70.57;27.90;;;3.80;99.90;;;;;;4379431;32;20180;-71
2020/12/18 01:41:48;;;;;;;67.37;28.17;;;3.80;99.90;;;;;;4370768;32;20156;-72
2020/12/18 01:44:15;;;;;;;63.20;26.37;;;3.60;99.90;;;;;;4380852;32;20399;-72
2020/12/18 01:46:42;;;;;;;68.50;28.17;;;3.60;99.90;;;;;;4370483;32;20171;-72
2020/12/18 01:49:09;;;;;;;65.37;27.27;;;3.50;99.90;;;;;;4379048;32;20477;-72
2020/12/18 01:51:49;;;;;;;69.47;27.80;;;3.70;99.90;;;;;;4377334;32;20160;-72
2020/12/18 01:54:19;;;;;;;67.77;27.53;;;3.70;99.90;;;;;;4373873;32;20152;-72
2020/12/18 01:56:47;;;;;;;66.53;28.03;;;3.80;99.90;;;;;;4381406;32;20148;-72
2020/12/18 01:59:14;;;;;;;69.67;27.87;;;3.70;99.90;;;;;;4368260;32;20211;-72
2020/12/18 02:01:41;;;;;;;64.03;26.87;;;3.80;99.90;;;;;;4376343;32;20182;-72
2020/12/18 02:04:08;;;;;;;67.07;27.60;;;3.90;99.90;;;;;;4372678;32;20234;-72
2020/12/18 02:06:36;;;;;;;64.37;27.23;;;3.80;99.90;;;;;;4380707;32;20143;-72
2020/12/18 02:09:06;;;;;;;70.07;28.87;;;3.80;99.90;;;;;;4369221;32;20153;-72
2020/12/18 02:11:32;;;;;;;64.33;28.23;;;3.80;99.90;;;;;;4377026;32;20164;-72
2020/12/18 02:13:59;;;;;;;67.77;28.70;;;3.90;99.90;;;;;;4371490;32;20212;-73
2020/12/18 02:16:25;;;;;;;63.60;26.93;;;3.90;99.90;;;;;;4381026;32;20149;-72
2020/12/18 02:18:52;;;;;;;71.67;28.90;;;3.90;99.90;;;;;;4369786;32;20279;-72
2020/12/18 02:21:18;;;;;;;67.60;26.87;;;3.90;99.90;;;;;;4377714;32;20205;-72
2020/12/18 02:23:48;;;;;;;67.17;28.07;;;4.00;99.90;;;;;;4370187;32;20401;-72
2020/12/18 02:26:16;;;;;;;66.30;27.13;;;3.90;99.90;;;;;;4380333;32;20152;-71
2020/12/18 02:28:47;;;;;;;69.10;27.00;;;3.80;99.90;;;;;;4370947;32;20520;-72
2020/12/18 02:31:14;;;;;;;70.77;28.67;;;3.70;99.90;;;;;;4378474;32;20535;-72
2020/12/18 02:33:41;;;;;;;65.00;27.60;;;3.60;99.90;;;;;;4369519;32;20556;-73
2020/12/18 02:36:08;;;;;;;70.33;28.50;;;3.60;99.90;;;;;;4380132;32;20152;-73
2020/12/18 02:38:35;;;;;;;70.73;27.70;;;3.70;99.90;;;;;;4370224;32;20155;-72
2020/12/18 02:41:02;;;;;;;66.97;28.30;;;3.60;99.90;;;;;;4379095;32;20207;-73
2020/12/18 02:43:28;;;;;;;68.73;27.87;;;3.70;99.90;;;;;;4376957;32;20160;-73
2020/12/18 02:45:55;;;;;;;68.53;29.13;;;3.70;99.90;;;;;;4370807;32;20413;-72
2020/12/18 02:48:21;;;;;;;69.83;27.83;;;3.70;99.90;;;;;;4381302;32;20237;-72
2020/12/18 02:50:49;;;;;;;68.50;28.20;;;3.80;99.90;;;;;;4368677;32;20358;-72
2020/12/18 02:53:20;;;;;;;62.83;26.67;;;3.80;99.90;;;;;;4380391;32;20178;-71
2020/12/18 02:55:47;;;;;;;74.33;28.80;;;3.80;99.90;;;;;;4376365;32;20195;-71
2020/12/18 02:58:14;;;;;;;68.90;28.27;;;3.70;99.90;;;;;;4372518;32;20174;-71
2020/12/18 03:00:41;;;;;;;64.70;29.13;;;3.70;99.90;;;;;;4381051;32;20538;-72
2020/12/18 03:03:08;;;;;;;69.43;28.13;;;3.70;99.90;;;;;;4368717;32;20219;-71
2020/12/18 03:05:35;;;;;;;64.70;28.03;;;3.60;99.90;;;;;;4376129;32;20413;-71
2020/12/18 03:08:02;;;;;;;67.17;29.90;;;3.60;99.90;;;;;;4371402;32;20261;-72
2020/12/18 03:10:30;;;;;;;68.43;28.40;;;3.60;99.90;;;;;;4379596;32;20144;-71
2020/12/18 03:12:56;;;;;;;65.13;27.97;;;3.60;99.90;;;;;;4367491;32;20166;-73
2020/12/18 03:15:23;;;;;;;70.07;28.43;;;3.70;99.90;;;;;;4377052;32;20198;-72
2020/12/18 03:17:49;;;;;;;64.57;28.07;;;3.70;99.90;;;;;;4369884;32;20144;-72
2020/12/18 03:20:15;;;;;;;69.90;28.57;;;3.70;99.90;;;;;;4371588;32;20156;-72
2020/12/18 03:22:46;;;;;;;72.80;28.17;;;3.80;99.90;;;;;;4375348;32;20197;-71
2020/12/18 03:25:13;;;;;;;62.30;27.50;;;3.80;99.90;;;;;;4377505;32;20206;-71
2020/12/18 03:27:43;;;;;;;64.63;27.37;;;3.90;99.90;;;;;;4370675;32;20160;-71
2020/12/18 03:30:10;;;;;;;75.63;29.80;;;3.90;99.90;;;;;;4373182;32;20203;-72
2020/12/18 03:32:37;;;;;;;68.63;28.20;;;3.80;99.90;;;;;;4373828;32;20231;-71
2020/12/18 03:35:05;;;;;;;66.53;29.50;;;3.70;99.90;;;;;;4378613;32;20179;-71
2020/12/18 03:37:33;;;;;;;69.07;28.50;;;3.70;99.90;;;;;;4367838;32;20210;-72
2020/12/18 03:40:00;;;;;;;69.23;29.13;;;3.60;99.90;;;;;;4379090;32;20171;-72
2020/12/18 03:42:27;;;;;;;72.60;29.73;;;3.60;99.90;;;;;;4370275;32;20475;-72
2020/12/18 03:44:53;;;;;;;70.80;29.23;;;3.60;99.90;;;;;;4375930;32;20178;-71
2020/12/18 03:47:20;;;;;;;71.93;29.50;;;3.60;99.90;;;;;;4376837;32;20371;-71
2020/12/18 03:49:47;;;;;;;75.20;30.10;;;3.60;99.90;;;;;;4369045;32;20136;-71
2020/12/18 03:52:14;;;;;;;73.73;28.40;;;3.60;99.90;;;;;;4379099;32;20188;-72
2020/12/18 03:54:40;;;;;;;73.47;29.37;;;3.70;99.90;;;;;;4368554;32;20274;-72
2020/12/18 03:57:06;;;;;;;68.63;29.50;;;3.60;99.90;;;;;;4377171;32;20170;-72
2020/12/18 03:59:33;;;;;;;72.87;30.57;;;3.70;99.90;;;;;;4375982;32;20140;-72
2020/12/18 04:02:00;;;;;;;68.90;28.83;;;3.70;99.90;;;;;;4370128;32;20166;-72
2020/12/18 04:04:26;;;;;;;71.73;30.03;;;3.70;99.90;;;;;;4380376;32;20210;-71
2020/12/18 04:06:52;;;;;;;68.73;28.93;;;3.60;99.90;;;;;;4367157;32;20153;-71
2020/12/18 04:09:22;;;;;;;70.93;29.20;;;3.60;99.90;;;;;;4376279;32;20196;-72
2020/12/18 04:11:48;;;;;;;68.47;29.60;;;3.70;99.90;;;;;;4368971;32;20278;-72
2020/12/18 04:14:15;;;;;;;71.20;29.43;;;3.70;99.90;;;;;;4378574;32;20422;-71
2020/12/18 04:16:42;;;;;;;69.43;28.70;;;3.60;99.90;;;;;;4368233;32;20206;-71
2020/12/18 04:19:08;;;;;;;71.93;30.70;;;3.60;99.90;;;;;;4378535;32;20160;-72
2020/12/18 04:21:35;;;;;;;69.83;29.73;;;3.60;99.90;;;;;;4374368;32;20206;-71
2020/12/18 04:24:01;;;;;;;69.00;29.50;;;3.60;99.90;;;;;;4370086;32;20147;-71
2020/12/18 04:26:27;;;;;;;73.17;30.43;;;3.50;99.90;;;;;;4366039;32;20530;-71
2020/12/18 04:28:54;;;;;;;74.47;29.17;;;3.60;99.90;;;;;;4378450;32;20394;-71
2020/12/18 04:31:21;;;;;;;68.57;28.83;;;3.50;99.90;;;;;;4366211;32;20479;-72
2020/12/18 04:33:47;;;;;;;75.27;29.80;;;3.50;99.90;;;;;;4378524;32;20179;-72
2020/12/18 04:36:14;;;;;;;74.27;29.20;;;3.50;99.90;;;;;;4371716;32;20148;-72
2020/12/18 04:38:40;;;;;;;67.83;29.27;;;3.60;99.90;;;;;;4373996;32;20191;-72
2020/12/18 04:41:07;;;;;;;70.97;30.03;;;3.60;99.90;;;;;;4377518;32;20206;-71
2020/12/18 04:43:33;;;;;;;77.93;29.47;;;3.60;99.90;;;;;;4369154;32;20179;-72
2020/12/18 04:46:00;;;;;;;72.90;30.07;;;3.60;99.90;;;;;;4381565;32;20513;-72
2020/12/18 04:48:28;;;;;;;74.80;30.77;;;3.50;99.90;;;;;;4372362;32;20144;-72
2020/12/18 04:50:56;;;;;;;70.00;29.83;;;3.50;99.90;;;;;;4378339;32;20151;-72
2020/12/18 04:53:38;;;;;;;79.43;30.40;;;3.60;99.90;;;;;;4370728;32;20398;-72
2020/12/18 04:56:11;;;;;;;73.70;28.83;;;3.50;99.90;;;;;;4374604;32;20168;-72
2020/12/18 04:58:38;;;;;;;69.47;28.83;;;3.50;99.90;;;;;;4378057;32;20204;-71
2020/12/18 05:01:08;;;;;;;70.07;28.20;;;3.60;99.90;;;;;;4380503;32;20209;-72
2020/12/18 05:03:35;;;;;;;66.17;28.17;;;3.60;99.90;;;;;;4370083;32;20155;-71
2020/12/18 05:06:06;;;;;;;70.20;29.27;;;3.60;99.90;;;;;;4382741;32;20205;-72
2020/12/18 05:08:33;;;;;;;67.73;29.47;;;3.60;99.90;;;;;;4372226;32;20432;-72
2020/12/18 05:11:24;;;;;;;70.03;30.10;;;3.70;99.90;;;;;;4380285;32;20247;-73
2020/12/18 05:13:52;;;;;;;68.63;28.87;;;3.80;99.90;;;;;;4375873;32;20191;-72
2020/12/18 05:16:20;;;;;;;69.07;30.00;;;3.80;99.90;;;;;;4374616;32;20223;-70
2020/12/18 05:18:48;;;;;;;70.03;28.90;;;3.90;99.90;;;;;;4382634;32;20394;-71
2020/12/18 05:21:15;;;;;;;63.50;28.03;;;3.80;99.90;;;;;;4368941;32;20207;-72
2020/12/18 05:23:59;;;;;;;65.33;28.43;;;3.80;99.90;;;;;;4376093;32;20168;-72
2020/12/18 05:26:28;;;;;;;63.60;27.67;;;3.80;99.90;;;;;;4375021;32;20226;-73
2020/12/18 05:29:16;;;;;;;65.67;27.27;;;3.80;99.90;;;;;;4381541;32;20415;-72
2020/12/18 05:31:47;;;;;;;62.03;27.23;;;3.80;99.90;;;;;;4372063;32;20221;-73
2020/12/18 05:34:15;;;;;;;65.67;27.90;;;3.80;99.90;;;;;;4382586;32;20235;-73
2020/12/18 05:36:42;;;;;;;64.80;27.87;;;3.90;99.90;;;;;;4369866;32;20179;-72
2020/12/18 05:39:11;;;;;;;62.50;28.03;;;3.90;99.90;;;;;;4379325;32;20404;-72
2020/12/18 05:41:42;;;;;;;59.10;26.77;;;3.80;99.90;;;;;;4378078;32;20140;-72
2020/12/18 05:44:08;;;;;;;64.17;26.43;;;3.80;99.90;;;;;;4373113;32;20178;-72
2020/12/18 05:46:38;;;;;;;58.67;26.57;;;3.80;99.90;;;;;;4370622;32;20141;-72
2020/12/18 05:49:07;;;;;;;63.60;26.43;;;3.80;99.90;;;;;;4378128;32;20167;-72
2020/12/18 05:51:36;;;;;;;60.40;27.00;;;3.70;99.90;;;;;;4369391;32;20230;-72
2020/12/18 05:54:19;;;;;;;60.80;25.93;;;3.80;99.90;;;;;;4382044;32;20164;-72
2020/12/18 05:56:47;;;;;;;60.90;25.30;;;3.80;99.90;;;;;;4370654;32;20140;-73
2020/12/18 05:59:16;;;;;;;59.37;26.80;;;3.90;99.90;;;;;;4379526;32;20167;-71
2020/12/18 06:01:44;;;;;;;56.07;25.63;;;3.90;99.90;;;;;;4376053;32;20152;-72
2020/12/18 06:04:19;;;;;;;58.50;25.40;;;4.00;99.90;;;;;;4374109;32;20488;-72
2020/12/18 06:06:50;;;;;;;59.53;26.20;;;4.00;99.90;;;;;;4380967;32;20571;-73
2020/12/18 06:09:26;;;;;;;55.13;24.47;;;4.00;99.90;;;;;;4368060;32;20200;-72
2020/12/18 06:11:53;;;;;;;59.37;25.97;;;4.00;99.90;;;;;;4375764;32;20169;-72
2020/12/18 06:14:21;;;;;;;62.03;24.83;;;4.20;99.90;;;;;;4373668;32;20166;-72
2020/12/18 06:16:53;;;;;;;57.77;25.73;;;4.20;99.90;;;;;;4380238;32;20210;-72
2020/12/18 06:19:23;;;;;;;62.27;25.60;;;4.20;99.90;;;;;;4367778;32;20188;-73
2020/12/18 06:21:57;;;;;;;59.20;25.50;;;4.20;99.90;;;;;;4380139;32;20144;-73
2020/12/18 06:24:41;;;;;;;58.47;25.13;;;4.20;99.90;;;;;;4371926;32;20160;-72
2020/12/18 06:27:12;;;;;;;63.50;26.20;;;4.30;99.90;;;;;;4376968;32;20439;-73
2020/12/18 06:29:38;;;;;;;63.07;25.37;;;4.20;99.90;;;;;;4369546;32;20157;-72
2020/12/18 06:32:21;;;;;;;61.83;25.53;;;4.20;99.90;;;;;;4373268;32;20152;-72
2020/12/18 06:34:48;;;;;;;72.93;25.83;;;4.10;99.90;;;;;;4376211;32;20521;-73
2020/12/18 06:37:33;;;;;;;67.90;26.97;;;4.10;99.90;;;;;;4378406;32;20148;-74
2020/12/18 06:40:00;;;;;;;66.23;26.53;;;4.10;99.90;;;;;;4371363;32;20156;-72
2020/12/18 06:42:28;;;;;;;67.83;26.13;;;4.10;99.90;;;;;;4380985;32;20182;-72
2020/12/18 06:44:57;;;;;;;70.80;27.00;;;4.10;99.90;;;;;;4367817;32;20148;-72
2020/12/18 06:47:26;;;;;;;72.93;26.80;;;4.10;99.90;;;;;;4377274;32;20211;-73
2020/12/18 06:49:55;;;;;;;73.60;27.67;;;4.10;99.90;;;;;;4370343;32;20195;-72
2020/12/18 06:52:44;;;;;;;77.30;27.47;;;4.20;99.90;;;;;;4379635;32;20202;-72
2020/12/18 06:55:12;;;;;;;78.13;28.13;;;4.10;99.90;;;;;;4367821;32;20499;-71
2020/12/18 06:57:39;;;;;;;75.80;27.47;;;4.10;99.90;;;;;;4377096;32;20153;-72
2020/12/18 07:00:21;;;;;;;80.03;28.87;;;4.00;99.90;;;;;;4372595;32;20206;-73
2020/12/18 07:02:48;;;;;;;83.57;27.73;;;4.00;99.90;;;;;;4381195;32;20416;-73
2020/12/18 07:05:47;;;;;;;76.63;27.77;;;4.10;99.90;;;;;;4366862;32;20156;-74
2020/12/18 07:08:15;;;;;;;83.97;29.17;;;4.20;99.90;;;;;;4296656;33;20150;-74
2020/12/18 07:10:46;;;;;;;80.00;27.93;;;4.20;99.90;;;;;;4299518;33;20671;-73
2020/12/18 07:13:15;;;;;;;79.30;27.33;;;4.30;99.90;;;;;;4291533;33;20158;-73
2020/12/18 07:15:45;;;;;;;75.13;27.17;;;4.30;99.90;;;;;;4298318;33;20185;-73
2020/12/18 07:18:25;;;;;;;73.87;28.73;;;4.20;99.90;;;;;;4296799;33;20186;-73
2020/12/18 07:20:54;;;;;;;83.43;28.70;;;4.20;99.90;;;;;;4292511;33;20197;-72
2020/12/18 07:23:22;;;;;;;82.73;28.33;;;4.30;99.90;;;;;;4300633;33;20240;-71
2020/12/18 07:25:49;;;;;;;79.63;28.77;;;4.30;99.90;;;;;;4294458;33;20179;-72
2020/12/18 07:28:16;;;;;;;77.43;29.13;;;4.40;99.90;;;;;;4295642;33;20182;-72
2020/12/18 07:30:46;;;;;;;77.07;28.43;;;4.40;99.90;;;;;;4299422;33;20413;-72
2020/12/18 07:33:14;;;;;;;72.93;28.10;;;4.40;99.90;;;;;;4292764;33;20252;-72
2020/12/18 07:35:42;;;;;;;76.17;28.50;;;4.40;99.90;;;;;;4298939;33;20166;-72
2020/12/18 07:38:20;;;;;;;75.70;29.17;;;4.30;99.90;;;;;;4296110;33;20150;-72
2020/12/18 07:40:51;;;;;;;75.33;27.73;;;4.30;99.90;;;;;;4294104;33;20154;-72
2020/12/18 07:43:21;;;;;;;79.23;28.67;;;4.40;99.90;;;;;;4322827;32;20147;-71
2020/12/18 07:45:49;;;;;;;76.93;28.33;;;4.40;99.90;;;;;;4370556;32;20447;-72
2020/12/18 07:48:30;;;;;;;74.30;28.60;;;4.40;99.90;;;;;;4378963;32;20560;-73
2020/12/18 07:51:05;;;;;;;76.43;28.07;;;4.50;99.90;;;;;;4365626;32;20400;-71
2020/12/18 07:53:34;;;;;;;78.27;28.27;;;4.60;99.90;;;;;;4364558;32;20254;-74
2020/12/18 07:56:06;;;;;;;77.07;28.63;;;4.60;99.90;;;;;;4363408;32;20211;-73
2020/12/18 07:58:47;;;;;;;81.30;29.00;;;4.50;99.90;;;;;;4372997;32;20148;-72
2020/12/18 08:01:23;;;;;;;77.57;28.67;;;4.60;99.90;;;;;;4377510;32;20160;-71
2020/12/18 08:03:55;;;;;;;83.60;29.70;;;4.60;99.90;;;;;;4365229;32;20160;-71
2020/12/18 08:06:33;;;;;;;79.87;30.10;;;4.50;99.90;;;;;;4372573;32;20369;-73
2020/12/18 08:09:14;;;;;;;79.33;29.37;;;4.60;99.90;;;;;;4367642;32;20185;-72
2020/12/18 08:11:50;;;;;;;82.30;30.07;;;4.70;99.90;;;;;;4375916;32;20171;-70
2020/12/18 08:14:17;;;;;;;76.93;29.70;;;4.60;99.90;;;;;;4372442;32;20173;-72
2020/12/18 08:16:44;;;;;;;75.83;29.57;;;4.70;99.90;;;;;;4379536;32;20164;-72
2020/12/18 08:19:12;;;;;;;76.97;30.10;;;4.70;99.90;;;;;;4366048;32;20170;-70
2020/12/18 08:21:41;;;;;;;76.93;28.10;;;4.80;99.90;;;;;;4374401;32;20171;-71
2020/12/18 08:24:23;;;;;;;76.03;30.03;;;4.80;99.90;;;;;;4370488;32;20151;-71
2020/12/18 08:27:03;;;;;;;78.30;28.93;;;4.70;99.90;;;;;;4378499;32;20203;-69
2020/12/18 08:29:31;;;;;;;76.00;29.27;;;4.70;99.90;;;;;;4366684;32;20173;-71
2020/12/18 08:32:00;;;;;;;74.73;28.90;;;4.80;99.90;;;;;;4373771;32;20171;-70
2020/12/18 08:34:28;;;;;;;80.20;29.13;;;4.90;99.90;;;;;;4372611;32;20171;-70
2020/12/18 08:36:56;;;;;;;76.83;30.13;;;4.80;99.90;;;;;;4378315;32;20149;-68
2020/12/18 08:39:22;;;;;;;87.70;30.93;;;4.90;99.90;;;;;;4366171;32;20464;-69
2020/12/18 08:41:52;;;;;;;77.07;30.17;;;4.90;99.90;;;;;;4379547;32;20140;-69
2020/12/18 08:44:23;;;;;;;80.13;30.43;;;4.90;99.90;;;;;;4371759;32;20160;-69
2020/12/18 08:46:50;;;;;;;72.87;28.80;;;5.00;99.90;;;;;;4375003;32;20216;-69
2020/12/18 08:49:21;;;;;;;78.30;30.07;;;5.10;99.90;;;;;;4365589;32;20182;-68
2020/12/18 08:51:52;;;;;;;80.07;28.80;;;5.20;99.90;;;;;;4374067;32;20435;-69
2020/12/18 08:54:22;;;;;;;81.27;30.00;;;5.10;99.90;;;;;;4371560;32;20509;-69
2020/12/18 08:57:22;;;;;;;77.10;28.90;;;5.10;99.90;;;;;;4362213;33;20156;-69
2020/12/18 09:00:04;;;;;;;77.47;28.70;;;5.20;99.90;;;;;;4368774;32;20149;-70
2020/12/18 09:02:32;;;;;;;84.43;29.83;;;5.20;99.90;;;;;;4369544;32;20183;-68
2020/12/18 09:05:11;;;;;;;86.93;31.50;;;5.10;99.90;;;;;;4376352;32;20160;-67
2020/12/18 09:07:56;;;;;;;85.40;31.30;;;5.10;99.90;;;;;;4369016;32;20478;-68
2020/12/18 09:10:40;;;;;;;82.43;31.07;;;5.10;99.90;;;;;;4371189;32;20185;-69
2020/12/18 09:13:12;;;;;;;87.40;32.07;;;5.10;99.90;;;;;;4375602;32;20156;-69
2020/12/18 09:15:39;;;;;;;90.77;32.03;;;5.20;99.90;;;;;;4367213;32;20160;-69
2020/12/18 09:18:10;;;;;;;82.37;30.57;;;5.30;99.90;;;;;;4372808;32;20202;-68
2020/12/18 09:20:42;;;;;;;81.67;30.03;;;5.30;99.90;;;;;;4374863;32;20139;-70
2020/12/18 09:23:11;;;;;;;88.80;32.00;;;5.40;99.90;;;;;;4367265;32;20172;-70
2020/12/18 09:25:42;;;;;;;85.17;30.20;;;5.50;99.90;;;;;;4375646;32;20194;-69
2020/12/18 09:28:11;;;;;;;80.17;29.23;;;5.50;99.90;;;;;;4370883;32;20398;-68
2020/12/18 09:30:39;;;;;;;77.17;30.00;;;5.50;99.90;;;;;;4380083;32;20148;-69
2020/12/18 09:33:13;;;;;;;81.17;31.30;;;5.40;99.90;;;;;;4369687;32;20157;-68
2020/12/18 09:35:41;;;;;;;80.27;30.53;;;5.50;99.90;;;;;;4376581;32;20233;-68
2020/12/18 09:38:08;;;;;;;82.07;29.53;;;5.50;99.90;;;;;;4373592;32;20179;-70
2020/12/18 09:40:35;;;;;;;74.70;29.47;;;5.60;99.90;;;;;;4380554;32;20149;-68
2020/12/18 09:43:02;;;;;;;81.00;30.13;;;5.60;99.90;;;;;;4368133;32;20522;-70
2020/12/18 09:45:42;;;;;;;71.47;28.80;;;5.60;99.90;;;;;;4377445;32;20210;-68
2020/12/18 09:48:09;;;;;;;75.17;29.23;;;5.60;99.90;;;;;;4373029;32;20170;-67
2020/12/18 09:50:35;;;;;;;75.97;28.80;;;5.80;99.90;;;;;;4380388;32;20212;-68
2020/12/18 09:53:02;;;;;;;75.00;28.77;;;5.80;99.90;;;;;;4368085;32;20153;-68
2020/12/18 09:55:28;;;;;;;75.10;29.50;;;5.80;99.90;;;;;;4378752;32;20227;-69
2020/12/18 09:57:55;;;;;;;70.93;29.10;;;5.80;99.90;;;;;;4370705;32;20171;-69
2020/12/18 10:00:21;;;;;;;69.13;28.03;;;5.80;99.90;;;;;;4382020;32;20144;-69
2020/12/18 10:02:48;;;;;;;74.57;29.10;;;5.80;99.90;;;;;;4370553;32;20166;-69
2020/12/18 10:05:14;;;;;;;70.27;29.33;;;5.70;99.90;;;;;;4380716;32;20172;-69
2020/12/18 10:07:41;;;;;;;67.23;27.27;;;5.80;99.90;;;;;;4376910;32;20204;-70
2020/12/18 10:10:10;;;;;;;65.27;27.23;;;5.80;99.90;;;;;;4372634;32;20147;-69
2020/12/18 10:12:37;;;;;;;66.87;26.90;;;5.80;99.90;;;;;;4381683;32;20408;-69
2020/12/18 10:15:04;;;;;;;75.67;29.13;;;5.90;99.90;;;;;;4368009;32;20202;-70
2020/12/18 10:17:30;;;;;;;64.40;28.30;;;5.90;99.90;;;;;;4380295;32;20479;-71
2020/12/18 10:19:56;;;;;;;70.37;27.53;;;6.00;99.90;;;;;;4374911;32;20156;-71
2020/12/18 10:22:23;;;;;;;66.77;28.47;;;6.00;99.90;;;;;;4374018;32;20191;-70
2020/12/18 10:24:51;;;;;;;70.37;28.60;;;6.00;99.90;;;;;;4381461;32;20181;-70
2020/12/18 10:27:18;;;;;;;67.00;26.57;;;5.90;99.90;;;;;;4367557;32;20196;-71
2020/12/18 10:29:45;;;;;;;66.50;27.77;;;5.90;99.90;;;;;;4375392;32;20176;-69
2020/12/18 10:32:11;;;;;;;67.20;27.97;;;6.10;99.90;;;;;;4372176;32;20157;-67
2020/12/18 10:34:38;;;;;;;67.67;28.50;;;6.10;99.90;;;;;;4380912;32;20517;-69
2020/12/18 10:37:05;;;;;;;65.57;26.97;;;6.20;99.90;;;;;;4368176;32;20545;-69
2020/12/18 10:39:31;;;;;;;68.43;29.07;;;6.20;99.90;;;;;;4378177;32;20241;-69
2020/12/18 10:42:00;;;;;;;60.50;27.07;;;6.20;99.90;;;;;;4370874;32;20188;-71
2020/12/18 10:44:27;;;;;;;60.27;27.80;;;6.20;99.90;;;;;;4379808;32;20156;-68
2020/12/18 10:46:53;;;;;;;65.00;28.77;;;6.30;99.90;;;;;;4369548;32;20508;-69
2020/12/18 10:49:20;;;;;;;61.53;27.30;;;6.20;99.90;;;;;;4376964;32;20203;-71
2020/12/18 10:51:46;;;;;;;61.33;27.30;;;6.20;99.90;;;;;;4371145;32;20148;-71
2020/12/18 10:54:13;;;;;;;65.73;28.07;;;6.20;99.90;;;;;;4381137;32;20257;-71
2020/12/18 10:56:44;;;;;;;64.63;28.20;;;6.20;99.90;;;;;;4370446;32;20215;-71
2020/12/18 10:59:11;;;;;;;59.80;28.07;;;6.30;99.90;;;;;;4379534;32;20171;-71
2020/12/18 11:01:39;;;;;;;61.73;27.03;;;6.40;99.90;;;;;;4375613;32;20191;-70
2020/12/18 11:04:06;;;;;;;62.10;27.30;;;6.30;99.90;;;;;;4371304;32;20210;-71
2020/12/18 11:06:36;;;;;;;64.43;28.07;;;6.40;99.90;;;;;;4379369;32;20235;-69
2020/12/18 11:09:03;;;;;;;58.87;26.27;;;6.40;99.90;;;;;;4368376;32;20183;-72
2020/12/18 11:11:29;;;;;;;57.73;28.00;;;6.50;99.90;;;;;;4375819;32;20158;-71
2020/12/18 11:13:56;;;;;;;60.67;26.90;;;6.50;99.90;;;;;;4370362;32;20159;-71
2020/12/18 11:16:27;;;;;;;57.83;26.33;;;6.60;99.90;;;;;;4381176;32;20202;-71
2020/12/18 11:18:54;;;;;;;59.27;26.70;;;6.60;99.90;;;;;;4368412;32;20158;-69
2020/12/18 11:21:20;;;;;;;60.90;26.90;;;6.50;99.90;;;;;;4378672;32;20166;-70
2020/12/18 11:23:47;;;;;;;61.23;27.10;;;6.50;99.90;;;;;;4374317;32;20206;-71
2020/12/18 11:26:13;;;;;;;54.70;26.70;;;6.50;99.90;;;;;;4371973;32;20190;-70
2020/12/18 11:28:40;;;;;;;56.00;26.93;;;6.50;99.90;;;;;;4379103;32;20207;-71
2020/12/18 11:31:06;;;;;;;59.07;26.23;;;6.50;99.90;;;;;;4366699;32;20144;-70
2020/12/18 11:33:33;;;;;;;57.43;26.87;;;6.50;99.90;;;;;;4375804;32;20211;-74
2020/12/18 11:36:00;;;;;;;64.57;28.40;;;6.40;99.90;;;;;;4370254;32;20175;-73
2020/12/18 11:38:27;;;;;;;56.30;26.87;;;6.40;99.90;;;;;;4370039;32;20148;-71
2020/12/18 11:40:53;;;;;;;63.00;28.33;;;6.60;99.90;;;;;;4376479;32;20518;-73
2020/12/18 11:43:20;;;;;;;65.57;29.13;;;6.60;99.90;;;;;;4378108;32;20587;-71
2020/12/18 11:45:46;;;;;;;61.67;28.00;;;6.50;99.90;;;;;;4368591;32;20184;-73
2020/12/18 11:48:13;;;;;;;60.83;28.77;;;6.40;99.90;;;;;;4379063;32;20184;-72
2020/12/18 11:50:40;;;;;;;59.17;27.60;;;6.50;99.90;;;;;;4368369;32;20191;-72
2020/12/18 11:53:08;;;;;;;58.63;27.13;;;6.60;99.90;;;;;;4377241;32;20150;-73
2020/12/18 11:55:35;;;;;;;61.00;27.60;;;6.70;99.90;;;;;;4375257;32;20441;-72
2020/12/18 11:58:01;;;;;;;59.40;28.27;;;6.70;99.90;;;;;;4370284;32;20179;-76
2020/12/18 12:00:28;;;;;;;56.13;27.53;;;6.70;99.90;;;;;;4378920;32;20231;-71
2020/12/18 12:02:54;;;;;;;57.57;28.40;;;6.80;99.90;;;;;;4366745;32;20170;-71
2020/12/18 12:05:23;;;;;;;62.23;28.23;;;6.80;99.90;;;;;;4376472;32;20519;-74
2020/12/18 12:07:50;;;;;;;59.27;26.57;;;6.80;99.90;;;;;;4369655;32;20159;-72
2020/12/18 12:10:17;;;;;;;58.53;26.90;;;6.80;99.90;;;;;;4378976;32;20148;-70
2020/12/18 12:12:45;;;;;;;57.80;27.63;;;6.70;99.90;;;;;;4374852;32;20183;-71
2020/12/18 12:15:13;;;;;;;55.60;27.33;;;6.80;99.90;;;;;;4376937;32;20445;-72
2020/12/18 12:17:40;;;;;;;57.57;27.23;;;6.80;99.90;;;;;;4369419;32;20470;-72
2020/12/18 12:20:06;;;;;;;57.33;27.70;;;6.80;99.90;;;;;;4380117;32;20181;-71
2020/12/18 12:22:33;;;;;;;58.37;27.33;;;6.90;99.90;;;;;;4369068;32;20192;-71
2020/12/18 12:24:59;;;;;;;56.37;26.90;;;7.00;99.90;;;;;;4375447;32;20165;-71
2020/12/18 12:27:26;;;;;;;54.80;26.63;;;6.90;99.90;;;;;;4375572;32;20148;-73
2020/12/18 12:29:53;;;;;;;53.17;26.47;;;6.90;99.90;;;;;;4369294;32;20179;-71
2020/12/18 12:32:20;;;;;;;52.30;26.27;;;7.10;99.90;;;;;;4378607;32;20148;-71
2020/12/18 12:34:46;;;;;;;55.30;26.73;;;7.10;99.90;;;;;;4367734;32;20203;-70
2020/12/18 12:37:13;;;;;;;53.03;26.90;;;6.90;99.90;;;;;;4377373;32;20276;-72
2020/12/18 12:39:41;;;;;;;54.33;26.67;;;7.00;99.90;;;;;;4375827;32;20152;-70
2020/12/18 12:42:08;;;;;;;51.53;24.87;;;7.00;99.90;;;;;;4372018;32;20227;-71
2020/12/18 12:44:35;;;;;;;53.60;26.23;;;7.20;99.90;;;;;;4382028;32;20489;-72